sensor_id;sensor_type;location;lat;lon;timestamp;pressure;altitude;pressure_sealevel;temperature;humidity
55460;BME280;41326;45.302;-122.946;2022-12-15T00:00:46;102258.85;;;16.97;51.55
55460;BME280;41326;45.302;-122.946;2022-12-15T00:03:16;102262.38;;;16.95;51.59
55460;BME280;41326;45.302;-122.946;2022-12-15T00:05:46;102263.51;;;16.92;51.64
55460;BME280;41326;45.302;-122.946;2022-12-15T00:08:17;102269.29;;;16.92;51.55
55460;BME280;41326;45.302;-122.946;2022-12-15T00:10:47;102270.16;;;17.03;51.12
55460;BME280;41326;45.302;-122.946;2022-12-15T00:13:18;102267.20;;;17.26;50.70
55460;BME280;41326;45.302;-122.946;2022-12-15T00:15:50;102267.66;;;17.45;50.28
55460;BME280;41326;45.302;-122.946;2022-12-15T00:18:19;102268.47;;;17.42;50.59
55460;BME280;41326;45.302;-122.946;2022-12-15T00:20:49;102271.46;;;17.40;50.88
55460;BME280;41326;45.302;-122.946;2022-12-15T00:23:19;102277.11;;;17.39;51.11
55460;BME280;41326;45.302;-122.946;2022-12-15T00:25:49;102279.65;;;17.38;51.23
55460;BME280;41326;45.302;-122.946;2022-12-15T00:28:19;102278.75;;;17.38;51.30
55460;BME280;41326;45.302;-122.946;2022-12-15T00:30:50;102280.62;;;17.38;51.38
55460;BME280;41326;45.302;-122.946;2022-12-15T00:33:20;102282.75;;;17.35;51.48
55460;BME280;41326;45.302;-122.946;2022-12-15T00:35:50;102281.70;;;17.32;51.66
55460;BME280;41326;45.302;-122.946;2022-12-15T00:38:21;102282.48;;;17.30;51.74
55460;BME280;41326;45.302;-122.946;2022-12-15T00:40:51;102282.71;;;17.28;51.81
55460;BME280;41326;45.302;-122.946;2022-12-15T00:43:21;102283.51;;;17.47;51.25
55460;BME280;41326;45.302;-122.946;2022-12-15T00:45:52;102288.54;;;17.66;50.80
55460;BME280;41326;45.302;-122.946;2022-12-15T00:48:21;102289.24;;;17.78;50.60
55460;BME280;41326;45.302;-122.946;2022-12-15T00:50:52;102294.59;;;18.00;50.04
55460;BME280;41326;45.302;-122.946;2022-12-15T00:53:23;102296.55;;;18.09;49.92
55460;BME280;41326;45.302;-122.946;2022-12-15T00:55:52;102298.14;;;18.17;49.74
55460;BME280;41326;45.302;-122.946;2022-12-15T00:58:23;102299.50;;;18.16;49.81
55460;BME280;41326;45.302;-122.946;2022-12-15T01:00:53;102300.30;;;18.19;49.66
55460;BME280;41326;45.302;-122.946;2022-12-15T01:03:25;102296.47;;;18.25;49.53
55460;BME280;41326;45.302;-122.946;2022-12-15T01:05:54;102291.84;;;18.37;49.27
55460;BME280;41326;45.302;-122.946;2022-12-15T01:08:24;102291.84;;;18.50;49.03
55460;BME280;41326;45.302;-122.946;2022-12-15T01:10:54;102294.39;;;18.57;48.87
55460;BME280;41326;45.302;-122.946;2022-12-15T01:13:24;102293.81;;;18.54;49.00
55460;BME280;41326;45.302;-122.946;2022-12-15T01:15:54;102299.08;;;18.51;49.09
55460;BME280;41326;45.302;-122.946;2022-12-15T01:18:25;102301.54;;;18.52;48.75
55460;BME280;41326;45.302;-122.946;2022-12-15T01:21:01;102304.01;;;18.61;48.59
55460;BME280;41326;45.302;-122.946;2022-12-15T01:23:25;102305.65;;;18.71;48.45
55460;BME280;41326;45.302;-122.946;2022-12-15T01:25:56;102302.26;;;18.79;48.37
55460;BME280;41326;45.302;-122.946;2022-12-15T01:28:27;102304.68;;;18.78;48.41
55460;BME280;41326;45.302;-122.946;2022-12-15T01:30:57;102304.83;;;18.74;48.59
55460;BME280;41326;45.302;-122.946;2022-12-15T01:33:27;102306.03;;;18.63;48.85
55460;BME280;41326;45.302;-122.946;2022-12-15T01:36:02;102305.04;;;18.68;48.72
55460;BME280;41326;45.302;-122.946;2022-12-15T01:38:28;102308.16;;;18.77;48.53
55460;BME280;41326;45.302;-122.946;2022-12-15T01:41:01;102310.24;;;18.87;48.34
55460;BME280;41326;45.302;-122.946;2022-12-15T01:43:31;102317.65;;;18.85;48.47
55460;BME280;41326;45.302;-122.946;2022-12-15T01:46:02;102318.70;;;18.80;48.67
55460;BME280;41326;45.302;-122.946;2022-12-15T01:48:34;102323.36;;;18.75;48.81
55460;BME280;41326;45.302;-122.946;2022-12-15T01:51:06;102325.62;;;18.84;48.50
55460;BME280;41326;45.302;-122.946;2022-12-15T01:53:31;102327.40;;;18.90;48.40
55460;BME280;41326;45.302;-122.946;2022-12-15T01:56:02;102324.97;;;18.95;48.40
55460;BME280;41326;45.302;-122.946;2022-12-15T01:58:31;102324.41;;;18.90;48.55
55460;BME280;41326;45.302;-122.946;2022-12-15T02:01:01;102327.84;;;18.87;48.61
55460;BME280;41326;45.302;-122.946;2022-12-15T02:03:32;102333.51;;;18.76;49.10
55460;BME280;41326;45.302;-122.946;2022-12-15T02:06:02;102337.42;;;18.64;49.44
55460;BME280;41326;45.302;-122.946;2022-12-15T02:08:32;102336.91;;;18.70;49.25
55460;BME280;41326;45.302;-122.946;2022-12-15T02:13:38;102344.82;;;18.91;49.02
55460;BME280;41326;45.302;-122.946;2022-12-15T02:16:08;102349.92;;;18.85;49.47
55460;BME280;41326;45.302;-122.946;2022-12-15T02:18:39;102347.97;;;18.79;49.88
55460;BME280;41326;45.302;-122.946;2022-12-15T02:21:07;102344.99;;;18.71;50.14
55460;BME280;41326;45.302;-122.946;2022-12-15T02:23:50;102342.27;;;18.65;50.37
55460;BME280;41326;45.302;-122.946;2022-12-15T02:28:43;102335.49;;;18.50;50.54
55460;BME280;41326;45.302;-122.946;2022-12-15T02:31:06;102333.54;;;18.48;50.53
55460;BME280;41326;45.302;-122.946;2022-12-15T02:33:39;102331.84;;;18.38;50.75
55460;BME280;41326;45.302;-122.946;2022-12-15T02:36:12;102334.04;;;18.37;50.86
55460;BME280;41326;45.302;-122.946;2022-12-15T02:38:38;102337.03;;;18.51;50.43
55460;BME280;41326;45.302;-122.946;2022-12-15T02:43:38;102345.81;;;18.69;50.27
55460;BME280;41326;45.302;-122.946;2022-12-15T02:46:17;102346.99;;;18.78;50.02
55460;BME280;41326;45.302;-122.946;2022-12-15T02:48:44;102352.71;;;18.75;50.09
55460;BME280;41326;45.302;-122.946;2022-12-15T02:51:16;102357.52;;;18.72;50.17
55460;BME280;41326;45.302;-122.946;2022-12-15T02:53:54;102359.63;;;18.64;50.46
55460;BME280;41326;45.302;-122.946;2022-12-15T02:56:11;102357.18;;;18.54;50.84
55460;BME280;41326;45.302;-122.946;2022-12-15T02:58:44;102364.57;;;18.47;51.09
55460;BME280;41326;45.302;-122.946;2022-12-15T03:01:14;102368.35;;;18.41;51.28
55460;BME280;41326;45.302;-122.946;2022-12-15T03:03:39;102367.64;;;18.33;51.52
55460;BME280;41326;45.302;-122.946;2022-12-15T03:06:09;102368.64;;;18.32;51.51
55460;BME280;41326;45.302;-122.946;2022-12-15T03:08:39;102369.33;;;18.41;51.17
55460;BME280;41326;45.302;-122.946;2022-12-15T03:11:10;102370.90;;;18.56;50.78
55460;BME280;41326;45.302;-122.946;2022-12-15T03:13:40;102371.17;;;18.69;50.51
55460;BME280;41326;45.302;-122.946;2022-12-15T03:16:11;102372.66;;;18.71;50.63
55460;BME280;41326;45.302;-122.946;2022-12-15T03:18:40;102371.21;;;18.65;51.04
55460;BME280;41326;45.302;-122.946;2022-12-15T03:21:11;102365.22;;;18.56;51.38
55460;BME280;41326;45.302;-122.946;2022-12-15T03:23:41;102364.55;;;18.50;51.61
55460;BME280;41326;45.302;-122.946;2022-12-15T03:26:11;102367.29;;;18.46;51.71
55460;BME280;41326;45.302;-122.946;2022-12-15T03:28:42;102367.73;;;18.42;51.63
55460;BME280;41326;45.302;-122.946;2022-12-15T03:31:12;102363.86;;;18.49;51.48
55460;BME280;41326;45.302;-122.946;2022-12-15T03:33:42;102363.11;;;18.61;51.12
55460;BME280;41326;45.302;-122.946;2022-12-15T03:36:13;102361.41;;;18.70;50.92
55460;BME280;41326;45.302;-122.946;2022-12-15T03:38:43;102360.60;;;18.70;50.93
55460;BME280;41326;45.302;-122.946;2022-12-15T03:41:14;102358.40;;;18.61;51.38
55460;BME280;41326;45.302;-122.946;2022-12-15T03:43:44;102362.32;;;18.50;52.28
55460;BME280;41326;45.302;-122.946;2022-12-15T03:46:14;102363.63;;;18.40;53.66
55460;BME280;41326;45.302;-122.946;2022-12-15T03:48:44;102364.37;;;18.39;54.60
55460;BME280;41326;45.302;-122.946;2022-12-15T03:51:15;102363.62;;;18.37;55.55
55460;BME280;41326;45.302;-122.946;2022-12-15T03:53:44;102365.79;;;18.40;56.22
55460;BME280;41326;45.302;-122.946;2022-12-15T03:56:15;102367.32;;;18.38;56.67
55460;BME280;41326;45.302;-122.946;2022-12-15T03:58:45;102362.56;;;18.38;57.18
55460;BME280;41326;45.302;-122.946;2022-12-15T04:01:20;102360.52;;;18.44;57.35
55460;BME280;41326;45.302;-122.946;2022-12-15T04:03:45;102361.36;;;18.43;57.39
55460;BME280;41326;45.302;-122.946;2022-12-15T04:06:16;102365.93;;;18.39;57.89
55460;BME280;41326;45.302;-122.946;2022-12-15T04:08:46;102366.29;;;18.38;57.50
55460;BME280;41326;45.302;-122.946;2022-12-15T04:11:17;102366.80;;;18.39;57.19
55460;BME280;41326;45.302;-122.946;2022-12-15T04:13:47;102371.67;;;18.37;57.25
55460;BME280;41326;45.302;-122.946;2022-12-15T04:16:18;102374.49;;;18.35;56.93
55460;BME280;41326;45.302;-122.946;2022-12-15T04:18:48;102378.22;;;18.33;56.92
55460;BME280;41326;45.302;-122.946;2022-12-15T04:21:18;102381.40;;;18.29;56.91
55460;BME280;41326;45.302;-122.946;2022-12-15T04:23:48;102387.85;;;18.23;57.29
55460;BME280;41326;45.302;-122.946;2022-12-15T04:26:20;102388.42;;;18.24;57.31
55460;BME280;41326;45.302;-122.946;2022-12-15T04:28:49;102389.05;;;18.22;57.62
55460;BME280;41326;45.302;-122.946;2022-12-15T04:31:23;102392.43;;;18.15;57.75
55460;BME280;41326;45.302;-122.946;2022-12-15T04:33:54;102392.17;;;18.12;57.84
55460;BME280;41326;45.302;-122.946;2022-12-15T04:36:21;102391.81;;;18.10;57.74
55460;BME280;41326;45.302;-122.946;2022-12-15T04:38:51;102388.97;;;18.09;57.52
55460;BME280;41326;45.302;-122.946;2022-12-15T04:41:23;102386.69;;;18.09;57.06
55460;BME280;41326;45.302;-122.946;2022-12-15T04:43:52;102385.62;;;18.30;55.62
55460;BME280;41326;45.302;-122.946;2022-12-15T04:46:23;102386.91;;;18.50;54.91
55460;BME280;41326;45.302;-122.946;2022-12-15T04:48:53;102379.89;;;18.55;54.41
55460;BME280;41326;45.302;-122.946;2022-12-15T04:51:23;102385.37;;;18.51;54.44
55460;BME280;41326;45.302;-122.946;2022-12-15T04:53:53;102385.32;;;18.49;54.19
55460;BME280;41326;45.302;-122.946;2022-12-15T04:56:23;102383.06;;;18.39;54.60
55460;BME280;41326;45.302;-122.946;2022-12-15T04:58:53;102383.38;;;18.29;54.83
55460;BME280;41326;45.302;-122.946;2022-12-15T05:01:23;102384.62;;;18.21;55.04
55460;BME280;41326;45.302;-122.946;2022-12-15T05:03:54;102394.12;;;18.23;54.57
55460;BME280;41326;45.302;-122.946;2022-12-15T05:06:24;102396.92;;;18.30;54.15
55460;BME280;41326;45.302;-122.946;2022-12-15T05:08:54;102393.15;;;18.27;54.12
55460;BME280;41326;45.302;-122.946;2022-12-15T05:11:25;102388.75;;;18.26;54.00
55460;BME280;41326;45.302;-122.946;2022-12-15T05:13:55;102388.45;;;18.21;54.16
55460;BME280;41326;45.302;-122.946;2022-12-15T05:16:25;102390.22;;;18.10;54.62
55460;BME280;41326;45.302;-122.946;2022-12-15T05:18:55;102385.21;;;18.04;54.79
55460;BME280;41326;45.302;-122.946;2022-12-15T05:21:25;102385.37;;;18.05;54.69
55460;BME280;41326;45.302;-122.946;2022-12-15T05:23:56;102392.55;;;17.97;54.84
55460;BME280;41326;45.302;-122.946;2022-12-15T05:26:26;102393.96;;;17.90;54.75
55460;BME280;41326;45.302;-122.946;2022-12-15T05:28:57;102393.69;;;17.93;54.51
55460;BME280;41326;45.302;-122.946;2022-12-15T05:31:27;102392.73;;;17.94;54.30
55460;BME280;41326;45.302;-122.946;2022-12-15T05:33:58;102394.18;;;17.89;54.51
55460;BME280;41326;45.302;-122.946;2022-12-15T05:36:28;102392.83;;;17.85;54.52
55460;BME280;41326;45.302;-122.946;2022-12-15T05:38:58;102391.29;;;17.81;54.69
55460;BME280;41326;45.302;-122.946;2022-12-15T05:42:41;102395.73;;;17.78;54.64
55460;BME280;41326;45.302;-122.946;2022-12-15T05:45:12;102402.95;;;17.74;54.58
55460;BME280;41326;45.302;-122.946;2022-12-15T05:47:42;102407.88;;;17.71;54.39
55460;BME280;41326;45.302;-122.946;2022-12-15T05:50:13;102419.56;;;17.70;54.19
55460;BME280;41326;45.302;-122.946;2022-12-15T05:52:43;102422.39;;;17.67;54.34
55460;BME280;41326;45.302;-122.946;2022-12-15T05:55:14;102423.38;;;17.65;54.29
55460;BME280;41326;45.302;-122.946;2022-12-15T05:57:44;102423.96;;;17.65;54.21
55460;BME280;41326;45.302;-122.946;2022-12-15T06:00:14;102422.83;;;17.60;54.29
55460;BME280;41326;45.302;-122.946;2022-12-15T06:02:43;102424.52;;;17.54;54.32
55460;BME280;41326;45.302;-122.946;2022-12-15T06:05:14;102423.01;;;17.52;54.33
55460;BME280;41326;45.302;-122.946;2022-12-15T06:07:44;102419.26;;;17.52;54.01
55460;BME280;41326;45.302;-122.946;2022-12-15T06:10:15;102424.22;;;17.50;53.89
55460;BME280;41326;45.302;-122.946;2022-12-15T06:12:45;102426.75;;;17.48;53.89
55460;BME280;41326;45.302;-122.946;2022-12-15T06:15:15;102425.26;;;17.43;53.95
55460;BME280;41326;45.302;-122.946;2022-12-15T06:17:45;102427.78;;;17.42;54.04
55460;BME280;41326;45.302;-122.946;2022-12-15T06:20:16;102425.56;;;17.40;54.01
55460;BME280;41326;45.302;-122.946;2022-12-15T06:22:46;102433.91;;;17.39;53.92
55460;BME280;41326;45.302;-122.946;2022-12-15T06:25:17;102433.50;;;17.35;53.99
55460;BME280;41326;45.302;-122.946;2022-12-15T06:27:47;102430.22;;;17.32;53.86
55460;BME280;41326;45.302;-122.946;2022-12-15T06:30:17;102429.61;;;17.29;53.85
55460;BME280;41326;45.302;-122.946;2022-12-15T06:32:47;102433.07;;;17.28;53.88
55460;BME280;41326;45.302;-122.946;2022-12-15T06:35:18;102443.47;;;17.27;53.94
55460;BME280;41326;45.302;-122.946;2022-12-15T06:37:48;102448.18;;;17.27;54.00
55460;BME280;41326;45.302;-122.946;2022-12-15T06:40:19;102451.13;;;17.29;53.86
55460;BME280;41326;45.302;-122.946;2022-12-15T06:42:49;102443.32;;;17.29;53.87
55460;BME280;41326;45.302;-122.946;2022-12-15T06:45:20;102450.06;;;17.24;53.87
55460;BME280;41326;45.302;-122.946;2022-12-15T06:47:50;102450.89;;;17.21;53.73
55460;BME280;41326;45.302;-122.946;2022-12-15T06:50:21;102447.45;;;17.20;53.65
55460;BME280;41326;45.302;-122.946;2022-12-15T06:52:51;102452.54;;;17.18;53.70
55460;BME280;41326;45.302;-122.946;2022-12-15T06:55:22;102458.55;;;17.14;53.71
55460;BME280;41326;45.302;-122.946;2022-12-15T06:57:52;102461.36;;;17.16;53.59
55460;BME280;41326;45.302;-122.946;2022-12-15T07:00:22;102462.83;;;17.13;53.63
55460;BME280;41326;45.302;-122.946;2022-12-15T07:02:52;102468.17;;;17.11;53.67
55460;BME280;41326;45.302;-122.946;2022-12-15T07:05:23;102472.69;;;17.07;53.73
55460;BME280;41326;45.302;-122.946;2022-12-15T07:07:53;102466.29;;;17.00;53.73
55460;BME280;41326;45.302;-122.946;2022-12-15T07:10:24;102466.76;;;16.98;53.76
55460;BME280;41326;45.302;-122.946;2022-12-15T07:12:55;102466.29;;;16.97;53.81
55460;BME280;41326;45.302;-122.946;2022-12-15T07:15:24;102464.92;;;16.95;53.81
55460;BME280;41326;45.302;-122.946;2022-12-15T07:17:55;102467.63;;;16.93;53.83
55460;BME280;41326;45.302;-122.946;2022-12-15T07:20:25;102461.93;;;16.90;53.87
55460;BME280;41326;45.302;-122.946;2022-12-15T07:22:56;102453.87;;;16.87;53.93
55460;BME280;41326;45.302;-122.946;2022-12-15T07:25:26;102450.78;;;16.82;54.00
55460;BME280;41326;45.302;-122.946;2022-12-15T07:27:56;102459.46;;;16.78;54.01
55460;BME280;41326;45.302;-122.946;2022-12-15T07:30:27;102457.02;;;16.75;54.03
55460;BME280;41326;45.302;-122.946;2022-12-15T07:32:56;102458.50;;;16.74;54.03
55460;BME280;41326;45.302;-122.946;2022-12-15T07:35:26;102454.80;;;16.73;54.09
55460;BME280;41326;45.302;-122.946;2022-12-15T07:37:58;102451.57;;;16.72;54.09
55460;BME280;41326;45.302;-122.946;2022-12-15T07:40:27;102461.00;;;16.70;54.01
55460;BME280;41326;45.302;-122.946;2022-12-15T07:42:58;102456.68;;;16.70;54.00
55460;BME280;41326;45.302;-122.946;2022-12-15T07:45:28;102446.19;;;16.66;54.05
55460;BME280;41326;45.302;-122.946;2022-12-15T07:47:58;102438.20;;;16.61;54.10
55460;BME280;41326;45.302;-122.946;2022-12-15T07:50:28;102437.12;;;16.59;54.09
55460;BME280;41326;45.302;-122.946;2022-12-15T07:52:58;102439.78;;;16.58;54.14
55460;BME280;41326;45.302;-122.946;2022-12-15T07:55:28;102446.94;;;16.55;54.18
55460;BME280;41326;45.302;-122.946;2022-12-15T07:57:59;102452.71;;;16.56;54.11
55460;BME280;41326;45.302;-122.946;2022-12-15T08:00:30;102458.68;;;16.52;54.17
55460;BME280;41326;45.302;-122.946;2022-12-15T08:03:00;102463.32;;;16.51;54.13
55460;BME280;41326;45.302;-122.946;2022-12-15T08:05:30;102471.16;;;16.50;54.08
55460;BME280;41326;45.302;-122.946;2022-12-15T08:08:02;102463.69;;;16.45;54.19
55460;BME280;41326;45.302;-122.946;2022-12-15T08:10:31;102471.63;;;16.42;54.21
55460;BME280;41326;45.302;-122.946;2022-12-15T08:13:01;102476.25;;;16.42;54.23
55460;BME280;41326;45.302;-122.946;2022-12-15T08:15:32;102480.10;;;16.38;54.24
55460;BME280;41326;45.302;-122.946;2022-12-15T08:18:01;102471.20;;;16.38;54.16
55460;BME280;41326;45.302;-122.946;2022-12-15T08:20:32;102466.96;;;16.35;54.19
55460;BME280;41326;45.302;-122.946;2022-12-15T08:23:03;102462.25;;;16.34;54.27
55460;BME280;41326;45.302;-122.946;2022-12-15T08:25:33;102453.96;;;16.31;54.23
55460;BME280;41326;45.302;-122.946;2022-12-15T08:28:03;102458.63;;;16.28;54.36
55460;BME280;41326;45.302;-122.946;2022-12-15T08:30:33;102456.95;;;16.24;54.61
55460;BME280;41326;45.302;-122.946;2022-12-15T08:33:04;102465.90;;;16.24;54.55
55460;BME280;41326;45.302;-122.946;2022-12-15T08:35:34;102470.26;;;16.30;54.30
55460;BME280;41326;45.302;-122.946;2022-12-15T08:38:06;102461.61;;;16.28;54.28
55460;BME280;41326;45.302;-122.946;2022-12-15T08:40:34;102453.80;;;16.23;54.31
55460;BME280;41326;45.302;-122.946;2022-12-15T08:43:05;102458.07;;;16.24;54.21
55460;BME280;41326;45.302;-122.946;2022-12-15T08:45:34;102453.75;;;16.20;54.24
55460;BME280;41326;45.302;-122.946;2022-12-15T08:48:05;102455.34;;;16.14;54.59
55460;BME280;41326;45.302;-122.946;2022-12-15T08:50:35;102449.91;;;16.12;54.63
55460;BME280;41326;45.302;-122.946;2022-12-15T08:53:06;102443.33;;;16.13;54.42
55460;BME280;41326;45.302;-122.946;2022-12-15T08:55:39;102443.37;;;16.08;54.53
55460;BME280;41326;45.302;-122.946;2022-12-15T08:58:06;102449.65;;;16.07;54.55
55460;BME280;41326;45.302;-122.946;2022-12-15T09:00:36;102444.53;;;16.07;54.43
55460;BME280;41326;45.302;-122.946;2022-12-15T09:03:07;102449.16;;;16.05;54.52
55460;BME280;41326;45.302;-122.946;2022-12-15T09:05:39;102447.32;;;16.03;54.42
55460;BME280;41326;45.302;-122.946;2022-12-15T09:08:07;102442.20;;;15.99;54.65
55460;BME280;41326;45.302;-122.946;2022-12-15T09:10:39;102448.01;;;15.99;54.75
55460;BME280;41326;45.302;-122.946;2022-12-15T09:13:08;102443.01;;;15.95;54.79
55460;BME280;41326;45.302;-122.946;2022-12-15T09:15:38;102432.98;;;15.95;54.65
55460;BME280;41326;45.302;-122.946;2022-12-15T09:18:09;102434.05;;;15.93;54.64
55460;BME280;41326;45.302;-122.946;2022-12-15T09:20:39;102434.91;;;15.94;54.58
55460;BME280;41326;45.302;-122.946;2022-12-15T09:23:10;102433.52;;;15.96;54.41
55460;BME280;41326;45.302;-122.946;2022-12-15T09:25:40;102429.01;;;15.92;54.47
55460;BME280;41326;45.302;-122.946;2022-12-15T09:28:09;102426.04;;;15.89;54.65
55460;BME280;41326;45.302;-122.946;2022-12-15T09:30:40;102431.62;;;15.85;55.01
55460;BME280;41326;45.302;-122.946;2022-12-15T09:33:10;102431.83;;;15.87;54.78
55460;BME280;41326;45.302;-122.946;2022-12-15T09:35:40;102439.00;;;15.86;54.75
55460;BME280;41326;45.302;-122.946;2022-12-15T09:38:10;102443.99;;;15.85;54.71
55460;BME280;41326;45.302;-122.946;2022-12-15T09:40:41;102455.39;;;15.84;54.67
55460;BME280;41326;45.302;-122.946;2022-12-15T09:43:13;102455.85;;;15.81;54.69
55460;BME280;41326;45.302;-122.946;2022-12-15T09:45:46;102459.92;;;15.80;54.61
55460;BME280;41326;45.302;-122.946;2022-12-15T09:48:16;102466.22;;;15.79;54.96
55460;BME280;41326;45.302;-122.946;2022-12-15T09:50:43;102469.38;;;15.78;55.24
55460;BME280;41326;45.302;-122.946;2022-12-15T09:53:15;102473.04;;;15.79;55.36
55460;BME280;41326;45.302;-122.946;2022-12-15T09:55:43;102468.53;;;15.75;55.32
55460;BME280;41326;45.302;-122.946;2022-12-15T09:58:23;102475.61;;;15.76;55.18
55460;BME280;41326;45.302;-122.946;2022-12-15T10:00:47;102476.88;;;15.73;55.22
55460;BME280;41326;45.302;-122.946;2022-12-15T10:03:24;102477.26;;;15.74;55.11
55460;BME280;41326;45.302;-122.946;2022-12-15T10:05:54;102474.08;;;15.71;55.13
55460;BME280;41326;45.302;-122.946;2022-12-15T10:08:14;102474.77;;;15.64;55.57
55460;BME280;41326;45.302;-122.946;2022-12-15T10:10:50;102476.75;;;15.61;55.72
55460;BME280;41326;45.302;-122.946;2022-12-15T10:13:18;102474.66;;;15.58;55.67
55460;BME280;41326;45.302;-122.946;2022-12-15T10:15:48;102477.36;;;15.59;55.55
55460;BME280;41326;45.302;-122.946;2022-12-15T10:18:21;102473.78;;;15.61;55.50
55460;BME280;41326;45.302;-122.946;2022-12-15T10:20:46;102475.15;;;15.58;55.50
55460;BME280;41326;45.302;-122.946;2022-12-15T10:23:17;102476.99;;;15.55;55.60
55460;BME280;41326;45.302;-122.946;2022-12-15T10:25:54;102476.09;;;15.54;55.49
55460;BME280;41326;45.302;-122.946;2022-12-15T10:28:32;102474.94;;;15.52;55.86
55460;BME280;41326;45.302;-122.946;2022-12-15T10:30:50;102480.05;;;15.50;55.94
55460;BME280;41326;45.302;-122.946;2022-12-15T10:33:22;102480.67;;;15.50;55.74
55460;BME280;41326;45.302;-122.946;2022-12-15T10:35:47;102484.70;;;15.52;55.61
55460;BME280;41326;45.302;-122.946;2022-12-15T10:38:34;102481.65;;;15.49;55.66
55460;BME280;41326;45.302;-122.946;2022-12-15T10:40:52;102474.98;;;15.50;55.56
55460;BME280;41326;45.302;-122.946;2022-12-15T10:43:24;102472.75;;;15.46;55.73
55460;BME280;41326;45.302;-122.946;2022-12-15T10:45:49;102459.74;;;15.47;55.57
55460;BME280;41326;45.302;-122.946;2022-12-15T10:48:23;102458.07;;;15.41;55.89
55460;BME280;41326;45.302;-122.946;2022-12-15T10:50:50;102463.42;;;15.41;56.00
55460;BME280;41326;45.302;-122.946;2022-12-15T10:53:32;102462.63;;;15.40;55.77
55460;BME280;41326;45.302;-122.946;2022-12-15T10:55:51;102455.25;;;15.37;55.86
55460;BME280;41326;45.302;-122.946;2022-12-15T10:58:22;102450.33;;;15.35;55.93
55460;BME280;41326;45.302;-122.946;2022-12-15T11:01:03;102437.71;;;15.33;55.83
55460;BME280;41326;45.302;-122.946;2022-12-15T11:03:26;102443.85;;;15.35;55.71
55460;BME280;41326;45.302;-122.946;2022-12-15T11:05:56;102446.31;;;15.36;55.74
55460;BME280;41326;45.302;-122.946;2022-12-15T11:08:23;102448.14;;;15.27;56.09
55460;BME280;41326;45.302;-122.946;2022-12-15T11:10:56;102455.33;;;15.30;56.08
55460;BME280;41326;45.302;-122.946;2022-12-15T11:13:24;102456.62;;;15.33;55.89
55460;BME280;41326;45.302;-122.946;2022-12-15T11:15:54;102457.92;;;15.34;55.64
55460;BME280;41326;45.302;-122.946;2022-12-15T11:18:33;102460.90;;;15.29;55.84
55460;BME280;41326;45.302;-122.946;2022-12-15T11:20:59;102458.23;;;15.28;55.63
55460;BME280;41326;45.302;-122.946;2022-12-15T11:23:31;102460.87;;;15.25;55.89
55460;BME280;41326;45.302;-122.946;2022-12-15T11:26:00;102457.30;;;15.23;55.89
55460;BME280;41326;45.302;-122.946;2022-12-15T11:28:40;102459.52;;;15.16;56.12
55460;BME280;41326;45.302;-122.946;2022-12-15T11:31:00;102465.54;;;15.16;56.15
55460;BME280;41326;45.302;-122.946;2022-12-15T11:33:26;102462.96;;;15.15;56.02
55460;BME280;41326;45.302;-122.946;2022-12-15T11:36:07;102466.98;;;15.10;56.12
55460;BME280;41326;45.302;-122.946;2022-12-15T11:38:31;102465.78;;;15.13;55.97
55460;BME280;41326;45.302;-122.946;2022-12-15T11:40:59;102460.94;;;15.12;56.08
55460;BME280;41326;45.302;-122.946;2022-12-15T11:43:41;102459.49;;;15.07;56.20
55460;BME280;41326;45.302;-122.946;2022-12-15T11:46:08;102454.82;;;15.06;56.11
55460;BME280;41326;45.302;-122.946;2022-12-15T11:48:34;102447.65;;;15.02;56.29
55460;BME280;41326;45.302;-122.946;2022-12-15T11:51:03;102447.24;;;15.00;56.40
55460;BME280;41326;45.302;-122.946;2022-12-15T11:53:43;102448.52;;;15.00;56.39
55460;BME280;41326;45.302;-122.946;2022-12-15T11:56:05;102452.50;;;14.98;56.34
55460;BME280;41326;45.302;-122.946;2022-12-15T12:01:07;102444.12;;;14.99;56.18
55460;BME280;41326;45.302;-122.946;2022-12-15T12:03:37;102444.91;;;14.96;56.37
55460;BME280;41326;45.302;-122.946;2022-12-15T12:06:10;102444.73;;;14.93;56.44
55460;BME280;41326;45.302;-122.946;2022-12-15T12:11:07;102442.77;;;14.88;56.58
55460;BME280;41326;45.302;-122.946;2022-12-15T12:13:35;102438.96;;;14.87;56.57
55460;BME280;41326;45.302;-122.946;2022-12-15T12:16:09;102442.60;;;14.86;56.57
55460;BME280;41326;45.302;-122.946;2022-12-15T12:18:35;102439.12;;;14.84;56.56
55460;BME280;41326;45.302;-122.946;2022-12-15T12:21:06;102438.91;;;14.83;56.71
55460;BME280;41326;45.302;-122.946;2022-12-15T12:23:37;102443.76;;;14.81;56.76
55460;BME280;41326;45.302;-122.946;2022-12-15T12:26:08;102448.02;;;14.81;56.68
55460;BME280;41326;45.302;-122.946;2022-12-15T12:28:41;102450.44;;;14.78;56.79
55460;BME280;41326;45.302;-122.946;2022-12-15T12:31:05;102453.26;;;14.77;56.92
55460;BME280;41326;45.302;-122.946;2022-12-15T12:33:39;102457.40;;;14.75;56.89
55460;BME280;41326;45.302;-122.946;2022-12-15T12:36:08;102449.77;;;14.77;56.68
55460;BME280;41326;45.302;-122.946;2022-12-15T12:38:39;102449.88;;;14.77;56.58
55460;BME280;41326;45.302;-122.946;2022-12-15T12:41:09;102454.62;;;14.74;56.69
55460;BME280;41326;45.302;-122.946;2022-12-15T12:43:37;102452.88;;;14.76;56.57
55460;BME280;41326;45.302;-122.946;2022-12-15T12:46:09;102461.17;;;14.73;56.60
55460;BME280;41326;45.302;-122.946;2022-12-15T12:48:42;102460.25;;;14.71;56.64